Granite Canon, Wyoming
Current Conditions -  °F | °C
As of 2:56 PM on Friday 24 Oct 2014 (Local Time) from KFEW Reporting Station
Clear Clear  
Wind Chill: 24°   Ceiling: Unl
Heat Index: 24°   Visibility: 10mi
Dew Point: -8°   Wind: 25mph
Humidity: 11%   Direction: 280°W
Pressure: 30.13"   Gusts: 32mph
Location:  41.1°N, 105.14°W
Report Text: KFEW 242056Z AUTO 28022G28KT 10SM CLR 24/M08 A3013 RMK AO2 PK WND 27030/44 SLP140 T02441079 57012 $
Loading
Personal Weather Stations






























Interactive Weather Map
Tropical Storm Tracking
New forecast layout! Learn more

10-Day Weather Forecast

Advertisements
Track Severe Weather on mobile